createdAt,value
2019-03-03T01:25:49.798Z,8.00
2019-03-03T01:34:10.945Z,8.20
2019-03-03T01:36:44.354Z,8.20
2019-03-03T01:50:52.680Z,8.30
2019-03-03T01:53:34.960Z,8.30
2019-03-03T02:10:51.024Z,8.20
2019-03-03T02:13:25.653Z,8.10
2019-03-03T02:30:39.684Z,8.30
2019-03-03T02:44:50.553Z,8.40
2019-03-03T02:47:28.601Z,8.50
2019-03-03T03:11:25.912Z,8.30
2019-03-03T04:06:45.688Z,8.40
2019-03-03T04:21:46.695Z,8.20
2019-03-03T04:27:56.161Z,8.20
2019-03-03T04:33:28.514Z,8.10
2019-03-03T04:51:12.940Z,8.10
2019-03-03T04:57:18.800Z,8.10
2019-03-03T04:59:40.229Z,8.10
2019-03-03T05:02:23.355Z,8.10
2019-03-03T05:04:56.435Z,8.20
2019-03-03T05:07:37.634Z,8.20
2019-03-03T05:10:11.884Z,8.10
2019-03-03T05:12:56.120Z,8.20
2019-03-03T05:15:26.543Z,8.20
2019-03-03T05:17:59.859Z,8.20
2019-03-03T05:20:53.672Z,8.30
2019-03-03T05:23:39.003Z,8.30
2019-03-03T06:51:42.116Z,8.70
2019-03-03T06:54:15.962Z,8.80
2019-03-03T06:57:15.947Z,8.80
2019-03-03T07:02:40.749Z,8.80
2019-03-03T07:05:10.630Z,8.90
2019-03-03T07:07:39.437Z,8.90
2019-03-03T07:10:10.687Z,8.90
2019-03-03T07:12:39.303Z,8.90
2019-03-03T07:15:10.721Z,9.00
2019-03-03T07:17:39.267Z,9.00
2019-03-03T07:20:10.349Z,9.00
2019-03-03T07:22:38.909Z,9.00
2019-03-03T07:25:28.706Z,9.10
2019-03-03T07:27:57.353Z,9.20
2019-03-03T07:30:26.383Z,9.20
2019-03-03T07:33:05.597Z,9.30
2019-03-03T07:35:34.615Z,9.30
2019-03-03T07:38:03.218Z,9.30
2019-03-03T07:40:31.882Z,9.30
2019-03-03T07:43:00.429Z,9.30
2019-03-03T07:45:28.994Z,9.40
2019-03-03T07:47:57.530Z,9.50
2019-03-03T07:50:26.200Z,9.40
2019-03-03T07:52:54.772Z,9.50
2019-03-03T07:55:23.446Z,9.50
2019-03-03T07:57:53.399Z,9.60
2019-03-03T08:00:23.818Z,9.60
2019-03-03T08:02:54.304Z,9.70
2019-03-03T08:05:22.956Z,9.70
2019-03-03T08:10:55.032Z,9.80
2019-03-03T08:13:23.634Z,9.80
2019-03-03T08:15:52.451Z,10.00
2019-03-03T08:18:22.958Z,10.00
2019-03-03T08:20:51.912Z,10.00
2019-03-03T08:23:20.438Z,10.10
2019-03-03T08:26:08.392Z,10.10
2019-03-03T08:28:36.219Z,10.10
2019-03-03T08:31:06.357Z,10.20
2019-03-03T08:33:34.931Z,10.20
2019-03-03T08:36:03.644Z,10.20
2019-03-03T08:38:32.183Z,10.20
2019-03-03T08:41:00.830Z,10.20
2019-03-03T08:43:31.245Z,10.30
2019-03-03T08:46:19.396Z,10.30
2019-03-03T08:48:49.828Z,10.40
2019-03-03T08:54:07.148Z,10.50
2019-03-03T08:56:41.684Z,10.60
2019-03-03T08:59:29.743Z,10.70
2019-03-03T09:04:58.146Z,10.70
2019-03-03T09:07:28.360Z,10.70
2019-03-03T09:10:01.260Z,10.60
2019-03-03T09:12:34.218Z,10.70
2019-03-03T09:15:12.612Z,10.70
2019-03-03T09:18:00.391Z,10.80
2019-03-03T09:23:35.750Z,10.80
2019-03-03T09:26:12.491Z,10.90
2019-03-03T09:28:46.990Z,10.90
2019-03-03T09:31:17.223Z,11.00
2019-03-03T09:33:49.398Z,11.10
2019-03-03T09:36:25.190Z,11.00
2019-03-03T09:39:10.672Z,11.10
2019-03-03T09:41:43.801Z,11.10
2019-03-03T09:44:16.484Z,11.10
2019-03-03T09:47:03.234Z,11.20
2019-03-03T09:49:42.344Z,11.30
2019-03-03T09:52:15.287Z,11.30
2019-03-03T09:54:50.256Z,11.40
2019-03-03T09:57:22.870Z,11.40
2019-03-03T09:59:53.071Z,11.60
2019-03-03T10:02:28.911Z,11.70
2019-03-03T10:05:05.002Z,11.80
2019-03-03T10:07:53.627Z,12.00
2019-03-03T10:10:41.408Z,12.00
2019-03-03T10:13:17.471Z,12.10
2019-03-03T10:18:54.288Z,12.10
2019-03-03T10:21:35.672Z,12.40
2019-03-03T10:27:07.490Z,12.70
2019-03-03T10:30:00.582Z,12.90
2019-03-03T10:32:44.109Z,12.70
2019-03-03T10:35:31.167Z,12.50
2019-03-03T10:38:22.383Z,12.40
2019-03-03T10:40:55.442Z,12.30
2019-03-03T10:43:26.104Z,12.10
2019-03-03T10:46:06.805Z,11.90
2019-03-03T10:48:37.069Z,12.00
2019-03-03T10:51:07.425Z,11.90
2019-03-03T10:53:37.710Z,12.00
2019-03-03T10:56:07.963Z,12.00
2019-03-03T10:58:54.490Z,12.00
2019-03-03T11:01:30.423Z,12.10
2019-03-03T11:04:03.090Z,12.00
2019-03-03T11:06:33.621Z,12.00
2019-03-03T11:09:09.908Z,12.00
2019-03-03T11:11:46.215Z,11.90
2019-03-03T11:14:16.451Z,11.70
2019-03-03T11:16:52.598Z,11.80
2019-03-03T11:19:25.604Z,11.70
2019-03-03T11:22:07.692Z,11.70
2019-03-03T11:24:43.637Z,11.70
2019-03-03T11:30:27.123Z,11.60
2019-03-03T11:33:06.499Z,11.60
2019-03-03T11:35:36.791Z,11.60
2019-03-03T11:38:12.588Z,11.50
2019-03-03T11:40:48.780Z,11.50
2019-03-03T11:43:34.895Z,11.50
2019-03-03T11:46:20.183Z,11.50
2019-03-03T11:48:56.271Z,11.50
2019-03-03T11:51:32.285Z,11.40
2019-03-03T11:54:05.482Z,11.40
2019-03-03T11:56:44.483Z,11.40
2019-03-03T11:59:30.903Z,11.30
2019-03-03T12:02:07.004Z,11.20
2019-03-03T12:04:46.812Z,11.10
2019-03-03T12:07:19.491Z,11.00
2019-03-03T12:09:52.673Z,11.10
2019-03-03T12:12:25.719Z,11.10
2019-03-03T12:14:55.982Z,11.00
2019-03-03T12:17:26.307Z,10.90
2019-03-03T12:20:08.510Z,10.90
2019-03-03T12:22:38.771Z,10.90
2019-03-03T12:25:14.195Z,10.80
2019-03-03T12:28:00.419Z,10.80
2019-03-03T12:30:30.788Z,10.80
2019-03-03T12:33:09.720Z,10.70
2019-03-03T12:35:52.527Z,10.80
2019-03-03T12:38:28.850Z,10.80
2019-03-03T12:40:59.223Z,10.70
2019-03-03T12:43:32.110Z,10.70
2019-03-03T12:46:11.164Z,10.60
2019-03-03T12:48:41.419Z,10.60
2019-03-03T12:51:11.882Z,10.60
2019-03-03T12:53:47.289Z,10.60
2019-03-03T12:56:32.969Z,10.60
2019-03-03T13:02:12.871Z,10.50
2019-03-03T13:04:46.182Z,10.40
2019-03-03T13:07:32.976Z,10.50
2019-03-03T13:10:05.961Z,10.60
2019-03-03T13:12:42.257Z,10.60
2019-03-03T13:18:08.086Z,10.60
2019-03-03T13:20:54.649Z,10.70
2019-03-03T13:23:31.094Z,10.70
2019-03-03T13:28:54.467Z,10.70
2019-03-03T13:31:41.143Z,10.70
2019-03-03T13:34:17.128Z,10.80
2019-03-03T13:36:54.414Z,10.80
2019-03-03T13:39:27.740Z,10.80
2019-03-03T13:42:02.268Z,10.80
2019-03-03T13:44:30.929Z,10.80
2019-03-03T13:46:59.557Z,10.80
2019-03-03T13:49:28.776Z,10.80
2019-03-03T13:51:57.531Z,10.80
2019-03-03T13:54:27.056Z,10.80
2019-03-03T13:56:55.870Z,10.80
2019-03-03T13:59:24.861Z,10.90
2019-03-03T14:01:56.309Z,11.00
2019-03-03T14:04:25.252Z,11.00
2019-03-03T14:06:58.320Z,11.00
2019-03-03T14:09:31.731Z,10.90
2019-03-03T14:12:01.100Z,10.90
2019-03-03T14:14:35.260Z,10.80
2019-03-03T14:17:07.417Z,10.80
2019-03-03T14:19:40.149Z,10.70
2019-03-03T14:22:10.749Z,10.70
2019-03-03T14:24:39.734Z,10.70
2019-03-03T14:27:10.819Z,10.70
2019-03-03T14:29:38.663Z,10.70
2019-03-03T14:32:08.367Z,10.80
2019-03-03T14:34:56.098Z,10.70
2019-03-03T14:37:24.654Z,10.70
2019-03-03T14:39:53.343Z,10.70
2019-03-03T14:42:22.147Z,10.60
2019-03-03T14:44:50.849Z,10.60
2019-03-03T14:47:19.909Z,10.60
2019-03-03T14:49:49.701Z,10.60
2019-03-03T14:58:28.834Z,10.50
2019-03-03T15:04:05.942Z,10.40
2019-03-03T15:06:35.495Z,10.40
2019-03-03T15:09:06.729Z,10.40
2019-03-03T15:11:35.634Z,10.40
2019-03-03T15:14:04.956Z,10.30
2019-03-03T15:16:35.621Z,10.40
2019-03-03T15:19:04.291Z,10.40
2019-03-03T15:21:32.955Z,10.40
2019-03-03T15:24:03.554Z,10.30
2019-03-03T15:26:31.914Z,10.40
2019-03-03T15:29:00.861Z,10.40
2019-03-03T15:31:37.466Z,10.40
2019-03-03T15:34:01.190Z,10.30
2019-03-03T15:36:29.995Z,10.20
2019-03-03T15:38:58.672Z,10.20
2019-03-03T15:41:29.902Z,10.20
2019-03-03T15:43:58.628Z,10.20
2019-03-03T15:46:27.195Z,10.10
2019-03-03T15:48:55.905Z,10.10
2019-03-03T15:51:24.951Z,10.00
2019-03-03T15:53:53.935Z,10.00
2019-03-03T15:56:22.567Z,9.90
2019-03-03T15:58:55.541Z,9.90
2019-03-03T16:01:22.340Z,9.90
2019-03-03T16:03:50.999Z,9.90
2019-03-03T16:06:19.727Z,9.80
2019-03-03T16:08:49.013Z,9.80
2019-03-03T16:11:17.995Z,9.80
2019-03-03T16:13:46.618Z,9.80
2019-03-03T16:16:15.676Z,9.80
2019-03-03T16:18:44.290Z,9.80
2019-03-03T16:21:12.931Z,9.80
2019-03-03T16:23:41.662Z,9.80
2019-03-03T16:26:10.367Z,9.80
2019-03-03T16:28:38.899Z,9.80
2019-03-03T16:31:07.482Z,9.90
2019-03-03T16:33:36.030Z,9.80
2019-03-03T16:36:04.840Z,9.80
2019-03-03T16:38:34.407Z,9.80
2019-03-03T16:41:03.113Z,9.80
2019-03-03T16:43:33.524Z,9.80
2019-03-03T16:46:02.087Z,9.80
2019-03-03T16:48:30.702Z,9.80
2019-03-03T16:50:59.344Z,9.70
2019-03-03T16:53:28.650Z,9.70
2019-03-03T16:55:57.271Z,9.70
2019-03-03T16:58:25.864Z,9.70
2019-03-03T17:00:55.063Z,9.70
2019-03-03T17:03:24.244Z,9.70
2019-03-03T17:05:52.856Z,9.70
2019-03-03T17:08:21.455Z,9.70
2019-03-03T17:10:51.502Z,9.70
2019-03-03T17:13:20.192Z,9.70
2019-03-03T17:15:48.845Z,9.70
2019-03-03T17:18:17.709Z,9.70
2019-03-03T17:20:46.255Z,9.70
2019-03-03T17:23:15.179Z,9.60
2019-03-03T17:25:43.798Z,9.70
2019-03-03T17:28:12.439Z,9.70
2019-03-03T17:30:41.063Z,9.60
2019-03-03T17:33:09.757Z,9.60
2019-03-03T17:35:38.325Z,9.60
2019-03-03T17:38:06.883Z,9.60
2019-03-03T17:40:35.510Z,9.60
2019-03-03T17:43:04.218Z,9.60
2019-03-03T17:45:32.762Z,9.60
2019-03-03T17:48:01.622Z,9.60
2019-03-03T17:50:31.331Z,9.60
2019-03-03T17:52:59.871Z,9.60
2019-03-03T17:55:28.570Z,9.60
2019-03-03T17:57:57.488Z,9.60
2019-03-03T18:00:33.389Z,9.60
2019-03-03T18:03:02.177Z,9.60
2019-03-03T18:08:14.579Z,9.60
2019-03-03T18:10:43.544Z,9.60
2019-03-03T18:13:12.259Z,9.70
2019-03-03T18:15:40.995Z,9.60
2019-03-03T18:18:09.604Z,9.60
2019-03-03T18:20:39.462Z,9.60
2019-03-03T18:23:08.320Z,9.60
2019-03-03T18:41:03.280Z,9.60
2019-03-03T18:49:40.823Z,9.60
2019-03-03T18:52:10.045Z,9.50
2019-03-03T18:54:39.010Z,9.50
2019-03-03T18:57:07.903Z,9.60
2019-03-03T18:59:36.803Z,9.60
2019-03-03T19:07:42.007Z,9.60
2019-03-03T19:13:35.611Z,9.60
2019-03-03T19:57:30.043Z,9.60
2019-03-03T20:44:17.421Z,9.60
2019-03-03T20:47:08.079Z,9.60
2019-03-03T20:58:29.534Z,9.60
2019-03-03T21:03:59.419Z,9.60
2019-03-03T21:33:44.790Z,9.80
2019-03-03T21:45:24.116Z,9.80
2019-03-03T21:48:13.776Z,9.80
2019-03-03T21:50:48.153Z,9.80
2019-03-03T21:53:24.831Z,9.90
2019-03-03T21:55:53.408Z,9.90
2019-03-03T21:58:22.291Z,9.90
2019-03-03T22:00:51.388Z,9.80
2019-03-03T22:03:20.078Z,9.90
2019-03-03T22:05:51.510Z,9.90
2019-03-03T22:08:20.225Z,9.80
2019-03-03T22:10:49.852Z,9.80
2019-03-03T22:13:18.487Z,9.90
2019-03-03T22:15:47.221Z,9.80
2019-03-03T22:18:15.888Z,9.90
2019-03-03T22:20:44.569Z,9.90
2019-03-03T22:23:14.934Z,9.90
2019-03-03T22:25:43.647Z,9.90
2019-03-03T22:28:12.431Z,9.90
2019-03-03T22:30:41.092Z,9.90
2019-03-03T22:33:09.964Z,10.00
2019-03-03T22:35:47.836Z,10.00
2019-03-03T22:38:16.824Z,9.90
2019-03-03T22:40:45.386Z,10.00
2019-03-03T22:43:14.102Z,9.90
2019-03-03T22:45:42.761Z,10.00
2019-03-03T22:48:11.343Z,10.00
2019-03-03T22:50:39.996Z,10.00
2019-03-03T22:53:08.546Z,10.00
2019-03-03T22:55:37.247Z,10.00
2019-03-03T22:58:07.488Z,10.00
2019-03-03T23:00:52.517Z,10.00
2019-03-03T23:03:24.191Z,10.10
2019-03-03T23:06:10.639Z,10.10
2019-03-03T23:08:44.809Z,10.00
2019-03-03T23:11:22.220Z,10.00
2019-03-03T23:13:51.650Z,9.90
2019-03-03T23:16:44.391Z,9.90
2019-03-03T23:22:49.545Z,9.80
2019-03-03T23:25:46.955Z,9.70
2019-03-03T23:28:16.362Z,9.70
2019-03-03T23:30:44.967Z,9.70
2019-03-03T23:33:13.652Z,9.70
2019-03-03T23:35:42.302Z,9.80
2019-03-03T23:38:10.856Z,9.80
2019-03-03T23:40:39.551Z,9.80
2019-03-03T23:43:08.192Z,9.80
2019-03-03T23:45:39.381Z,9.90
2019-03-03T23:48:08.135Z,9.90
2019-03-03T23:50:39.522Z,9.90
2019-03-03T23:53:08.396Z,9.90
2019-03-03T23:55:37.128Z,9.90
2019-03-03T23:58:05.777Z,9.90
